Esperanza — PD6464 — position and weather

sailwx.info

Track history (hours):
 
Tides and Currents Weather Stations Pressure Air Temp Water Temp Dewpoint Dewpoint Depression Visibility Wind Speed Wind Dir Waves Ship Positions

Esperanza

Last reported at 2014-Jul-15 08:26 UTC. Time now 2014-Aug-21 14:05 UTC.
Position N 54°09' E 004°55'.
Warning: this ship's position is 37 days out of date.

Length 72 m; draft 4.7 m.

Type: Other ship. MMSI: 244690000.

Date/timePositionNaut miles runAvg speedWind from/ knotsBaromVisibWave heightAir tempDewpointWater temp
2014-Jul-15 08:26N 54°09' E 004°55'1010.8
2014-Jul-15 07:32N 53°59' E 004°57'1110.2
2014-Jul-15 06:29N 53°49' E 004°54'1110.4
2014-Jul-15 05:26N 53°38' E 004°51'910.3
2014-Jul-15 04:33N 53°29' E 004°45'11 9.6
2014-Jul-15 03:28N 53°20' E 004°37'31 9.1
2014-Jul-15 00:04N 52°52' E 004°16'4 8.3
2014-Jul-14 23:32N 52°48' E 004°13'8 8.4
2014-Jul-14 22:33N 52°41' E 004°07'8 8.3
2014-Jul-14 21:33N 52°32' E 004°09'9 9.5
2014-Jul-14 20:33N 52°29' E 004°24'7 7.3
2014-Jul-14 19:33N 52°28' E 004°36'4 3.8
2014-Jul-14 18:33N 52°27' E 004°42'8 8.4
2014-Jul-14 17:34N 52°23' E 004°54'2 1.8
2014-Jul-14 16:33N 52°23' E 004°57'0 0.0
2014-Jul-14 15:31N 52°23' E 004°57'0 0.0
2014-Jul-14 14:34N 52°23' E 004°57'0 0.0
2014-Jul-14 13:31N 52°23' E 004°57'0 0.0
2014-Jul-14 12:31N 52°23' E 004°57'0 0.0
2014-Jul-14 11:33N 52°23' E 004°57'0 0.0
2014-Jul-14 10:33N 52°23' E 004°57'0 0.0
2014-Jul-14 09:34N 52°23' E 004°57'0 0.0
2014-Jul-14 08:31N 52°23' E 004°57'0 0.0
2014-Jul-14 07:33N 52°23' E 004°57'0 0.0
2014-Jul-14 06:31N 52°23' E 004°57'0 0.0
2014-Jul-14 05:33N 52°23' E 004°57'0 0.0
2014-Jul-14 04:31N 52°23' E 004°57'0 0.0
2014-Jul-14 03:33N 52°23' E 004°57'0 0.0
2014-Jul-14 02:27N 52°23' E 004°57'0 0.0
2014-Jul-14 01:33N 52°23' E 004°57'0 0.0
2014-Jul-14 00:33N 52°23' E 004°57'0 0.0
2014-Jul-13 23:30N 52°23' E 004°57'0 0.0
2014-Jul-13 22:34N 52°23' E 004°57'0 0.0
2014-Jul-13 21:33N 52°23' E 004°57'0 0.0
2014-Jul-13 20:33N 52°23' E 004°57'0 0.0
2014-Jul-13 19:34N 52°23' E 004°57'0 0.0
2014-Jul-13 18:33N 52°23' E 004°57'0 0.0
2014-Jul-13 17:33N 52°23' E 004°57'0 0.0
2014-Jul-13 16:33N 52°23' E 004°57'0 0.0
2014-Jul-13 15:33N 52°23' E 004°57'0 0.0
2014-Jul-13 14:33N 52°23' E 004°57'0 0.0
2014-Jul-13 13:33N 52°23' E 004°57'0 0.0
2014-Jul-13 12:33N 52°23' E 004°57'0 0.0
2014-Jul-13 11:33N 52°23' E 004°57'0 0.0
2014-Jul-13 10:33N 52°23' E 004°57'0 0.0
2014-Jul-13 09:33N 52°23' E 004°57'0 0.0
2014-Jul-13 08:33N 52°23' E 004°57'0 0.0
2014-Jul-13 07:33N 52°23' E 004°57'0 0.0
2014-Jul-13 06:33N 52°23' E 004°57'0 0.0
2014-Jul-13 05:33N 52°23' E 004°57'0 0.0
2014-Jul-13 04:33N 52°23' E 004°57'0 0.0
2014-Jul-13 03:33N 52°23' E 004°57'0 0.0
2014-Jul-13 02:33N 52°23' E 004°57'0 0.0
2014-Jul-13 01:33N 52°23' E 004°57'0 0.0
2014-Jul-13 00:33N 52°23' E 004°57'0 0.0
2014-Jul-12 23:33N 52°23' E 004°57'0 0.0
2014-Jul-12 22:33N 52°23' E 004°57'0 0.0
2014-Jul-12 21:33N 52°23' E 004°57'0 0.0
2014-Jul-12 20:33N 52°23' E 004°57'0 0.0
2014-Jul-12 19:33N 52°23' E 004°57'0 0.0
2014-Jul-12 18:33N 52°23' E 004°57'0 0.0
2014-Jul-12 17:33N 52°23' E 004°57'0 0.0
2014-Jul-12 16:33N 52°23' E 004°57'0 0.0
2014-Jul-12 15:33N 52°23' E 004°57'0 0.0
2014-Jul-12 14:33N 52°23' E 004°57'0 0.0
2014-Jul-12 13:33N 52°23' E 004°57'0 0.0
2014-Jul-12 12:33N 52°23' E 004°57'0 0.0
2014-Jul-12 11:33N 52°23' E 004°57'0 0.0
2014-Jul-12 10:33N 52°23' E 004°57'0 0.0
2014-Jul-12 09:33N 52°23' E 004°57'0 0.0
2014-Jul-12 08:33N 52°23' E 004°57'0 0.0
2014-Jul-12 07:33N 52°23' E 004°57'0 0.0
2014-Jul-12 06:33N 52°23' E 004°57'0 0.0
2014-Jul-12 05:33N 52°23' E 004°57'0 0.0
2014-Jul-12 04:33N 52°23' E 004°57'0 0.0
2014-Jul-12 03:33N 52°23' E 004°57'0 0.0
2014-Jul-12 02:33N 52°23' E 004°57'0 0.0
2014-Jul-12 01:33N 52°23' E 004°57'0 0.0
2014-Jul-12 00:33N 52°23' E 004°57'0 0.0
2014-Jul-11 23:33N 52°23' E 004°57'0 0.0
2014-Jul-11 22:33N 52°23' E 004°57'0 0.0
2014-Jul-11 21:33N 52°23' E 004°57'0 0.0
2014-Jul-11 20:33N 52°23' E 004°57'0 0.0
2014-Jul-11 19:33N 52°23' E 004°57'0 0.0
2014-Jul-11 18:33N 52°23' E 004°57'0 0.0
2014-Jul-11 17:33N 52°23' E 004°57'0 0.0
2014-Jul-11 16:33N 52°23' E 004°57'0 0.0
2014-Jul-11 15:33N 52°23' E 004°57'0 0.0
2014-Jul-11 14:33N 52°23' E 004°57'0 0.0
2014-Jul-11 13:33N 52°23' E 004°57'0 0.0
2014-Jul-11 12:33N 52°23' E 004°57'0 0.0
2014-Jul-11 11:33N 52°23' E 004°57'0 0.0
2014-Jul-11 10:33N 52°23' E 004°57'0 0.0
2014-Jul-11 09:33N 52°23' E 004°57'0 0.0
2014-Jul-11 08:33N 52°23' E 004°57'0 0.0
2014-Jul-11 07:33N 52°23' E 004°57'0 0.0
2014-Jul-11 06:33N 52°23' E 004°57'0 0.0
2014-Jul-11 05:33N 52°23' E 004°57'0 0.0
2014-Jul-11 04:33N 52°23' E 004°57'0 0.0
2014-Jul-11 03:33N 52°23' E 004°57'0 0.0
2014-Jul-11 02:33N 52°23' E 004°57'0 0.0
2014-Jul-11 01:33N 52°23' E 004°57'0 0.0
2014-Jul-11 00:33N 52°23' E 004°57'0 0.0
2014-Jul-10 23:33N 52°23' E 004°57'0 0.0
2014-Jul-10 22:33N 52°23' E 004°57'0 0.0
2014-Jul-10 21:33N 52°23' E 004°57'0 0.0
2014-Jul-10 20:33N 52°23' E 004°57'0 0.0
2014-Jul-10 19:33N 52°23' E 004°57'0 0.0
2014-Jul-10 18:33N 52°23' E 004°57'0 0.0
2014-Jul-10 17:33N 52°23' E 004°57'0 0.0
2014-Jul-10 16:33N 52°23' E 004°57'0 0.0
2014-Jul-10 15:33N 52°23' E 004°57'0 0.0
2014-Jul-10 14:33N 52°23' E 004°57'0 0.0
2014-Jul-10 13:33N 52°23' E 004°57'0 0.0
2014-Jul-10 12:33N 52°23' E 004°57'0 0.0
2014-Jul-10 11:33N 52°23' E 004°57'0 0.0
2014-Jul-10 10:33N 52°23' E 004°57'0 0.0
2014-Jul-10 09:33N 52°23' E 004°57'0 0.0
2014-Jul-10 08:33N 52°23' E 004°57'0 0.0
2014-Jul-10 07:33N 52°23' E 004°57'0 0.0
2014-Jul-10 06:33N 52°23' E 004°57'0 0.0
2014-Jul-10 05:33N 52°23' E 004°57'0 0.0
2014-Jul-10 04:33N 52°23' E 004°57'0 0.0
2014-Jul-10 03:33N 52°23' E 004°57'0 0.0
2014-Jul-10 02:33N 52°23' E 004°57'0 0.0
2014-Jul-10 01:33N 52°23' E 004°57'0 0.0
2014-Jul-10 00:33N 52°23' E 004°57'0 0.0
2014-Jul-09 23:33N 52°23' E 004°57'0 0.0
2014-Jul-09 22:33N 52°23' E 004°57'0 0.0
2014-Jul-09 21:33N 52°23' E 004°57'0 0.0
2014-Jul-09 20:33N 52°23' E 004°57'0 0.0
2014-Jul-09 19:33N 52°23' E 004°57'0 0.0
2014-Jul-09 18:33N 52°23' E 004°57'0 0.0
2014-Jul-09 17:33N 52°23' E 004°57'0 0.0
2014-Jul-09 16:33N 52°23' E 004°57'0 0.0
2014-Jul-09 15:33N 52°23' E 004°57'0 0.0
2014-Jul-09 14:33N 52°23' E 004°57'0 0.0
2014-Jul-09 13:33N 52°23' E 004°57'0 0.0
2014-Jul-09 12:33N 52°23' E 004°57'0 0.0
2014-Jul-09 11:33N 52°23' E 004°57'0 0.0
2014-Jul-09 10:33N 52°23' E 004°57'0 0.0
2014-Jul-09 09:33N 52°23' E 004°57'0 0.0
2014-Jul-09 08:33N 52°23' E 004°57'0 0.0
2014-Jul-09 07:33N 52°23' E 004°57'0 0.0
2014-Jul-09 06:33N 52°23' E 004°57'0 0.0
2014-Jul-09 05:33N 52°23' E 004°57'0 0.0
2014-Jul-09 04:33N 52°23' E 004°57'0 0.0
2014-Jul-09 03:33N 52°23' E 004°57'0 0.0
2014-Jul-09 02:33N 52°23' E 004°57'0 0.0
2014-Jul-09 01:33N 52°23' E 004°57'0 0.0
2014-Jul-09 00:33N 52°23' E 004°57'0 0.0
2014-Jul-08 23:33N 52°23' E 004°57'0 0.0
2014-Jul-08 22:33N 52°23' E 004°57'0 0.0
2014-Jul-08 21:33N 52°23' E 004°57'0 0.0
2014-Jul-08 20:33N 52°23' E 004°57'0 0.0
2014-Jul-08 19:33N 52°23' E 004°57'0 0.0
2014-Jul-08 18:33N 52°23' E 004°57'0 0.0
2014-Jul-08 17:33N 52°23' E 004°57'0 0.0
2014-Jul-08 16:33N 52°23' E 004°57'0 0.0
2014-Jul-08 15:33N 52°23' E 004°57'0 0.0
2014-Jul-08 14:33N 52°23' E 004°57'0 0.0
2014-Jul-08 13:30N 52°23' E 004°57'0 0.0
2014-Jul-08 12:33N 52°23' E 004°57'0 0.0
2014-Jul-08 11:33N 52°23' E 004°57'0 0.0
2014-Jul-08 10:33N 52°23' E 004°57'0 0.0
2014-Jul-08 09:33N 52°23' E 004°57'0 0.0
2014-Jul-08 08:30N 52°23' E 004°57'0 0.0
2014-Jul-08 07:33N 52°23' E 004°57'0 0.0
2014-Jul-08 06:33N 52°23' E 004°57'0 0.0
2014-Jul-08 05:33N 52°23' E 004°57'0 0.0
2014-Jul-08 04:30N 52°23' E 004°57'0 0.0
2014-Jul-08 03:33N 52°23' E 004°57'0 0.0
2014-Jul-08 02:33N 52°23' E 004°57'0 0.0
2014-Jul-08 01:33N 52°23' E 004°57'0 0.0
2014-Jul-08 00:33N 52°23' E 004°57'0 0.0
2014-Jul-07 23:33N 52°23' E 004°57'0 0.0
2014-Jul-07 22:33N 52°23' E 004°57'0 0.0
2014-Jul-07 21:33N 52°23' E 004°57'0 0.0
2014-Jul-07 20:33N 52°23' E 004°57'0 0.0
2014-Jul-07 19:33N 52°23' E 004°57'0 0.0
2014-Jul-07 18:33N 52°23' E 004°57'0 0.0
2014-Jul-07 17:33N 52°23' E 004°57'0 0.0
2014-Jul-07 16:33N 52°23' E 004°57'0 0.0
2014-Jul-07 15:33N 52°23' E 004°57'0 0.0
2014-Jul-07 14:33N 52°23' E 004°57'0 0.0
2014-Jul-07 13:33N 52°23' E 004°57'0 0.0
2014-Jul-07 12:33N 52°23' E 004°57'0 0.0
2014-Jul-07 11:30N 52°23' E 004°57'0 0.0
2014-Jul-07 10:30N 52°23' E 004°57'0 0.0
2014-Jul-07 09:33N 52°23' E 004°57'0 0.0
2014-Jul-07 08:33N 52°23' E 004°57'0 0.0
2014-Jul-07 07:33N 52°23' E 004°57'0 0.0
2014-Jul-07 06:33N 52°23' E 004°57'0 0.0
2014-Jul-07 05:33N 52°23' E 004°57'0 0.0
2014-Jul-07 04:33N 52°23' E 004°57'0 0.0
2014-Jul-07 03:33N 52°23' E 004°57'0 0.0
2014-Jul-07 02:33N 52°23' E 004°57'0 0.0
2014-Jul-07 01:33N 52°23' E 004°57'0 0.0
2014-Jul-07 00:33N 52°23' E 004°57'0 0.0
2014-Jul-06 23:33N 52°23' E 004°57'0 0.0
2014-Jul-06 22:33N 52°23' E 004°57'0 0.0
2014-Jul-06 21:33N 52°23' E 004°57'0 0.0
2014-Jul-06 20:33N 52°23' E 004°57'0 0.0
2014-Jul-06 19:33N 52°23' E 004°57'0 0.0
2014-Jul-06 18:33N 52°23' E 004°57'0 0.0
2014-Jul-06 17:33N 52°23' E 004°57'0 0.0
2014-Jul-06 16:33N 52°23' E 004°57'0 0.0
2014-Jul-06 15:33N 52°23' E 004°57'0 0.0
2014-Jul-06 14:33N 52°23' E 004°57'0 0.0
2014-Jul-06 13:33N 52°23' E 004°57'0 0.0
2014-Jul-06 12:33N 52°23' E 004°57'0 0.0
2014-Jul-06 11:33N 52°23' E 004°57'0 0.0
2014-Jul-06 10:33N 52°23' E 004°57'0 0.0
2014-Jul-06 09:33N 52°23' E 004°57'0 0.0
2014-Jul-06 08:33N 52°23' E 004°57'0 0.0
2014-Jul-06 07:33N 52°23' E 004°57'0 0.0
2014-Jul-06 06:33N 52°23' E 004°57'0 0.0
2014-Jul-06 05:33N 52°23' E 004°57'0 0.0
2014-Jul-06 04:33N 52°23' E 004°57'0 0.0
2014-Jul-06 03:33N 52°23' E 004°57'0 0.0
2014-Jul-06 02:33N 52°23' E 004°57'0 0.0
2014-Jul-06 01:33N 52°23' E 004°57'0 0.0
2014-Jul-06 00:33N 52°23' E 004°57'0 0.0
2014-Jul-05 23:33N 52°23' E 004°57'0 0.0
2014-Jul-05 22:33N 52°23' E 004°57'0 0.0
2014-Jul-05 21:33N 52°23' E 004°57'0 0.0
2014-Jul-05 20:33N 52°23' E 004°57'0 0.0
2014-Jul-05 19:33N 52°23' E 004°57'0 0.0
2014-Jul-05 18:33N 52°23' E 004°57'0 0.0
2014-Jul-05 17:33N 52°23' E 004°57'0 0.0
2014-Jul-05 16:33N 52°23' E 004°57'0 0.0
2014-Jul-05 15:33N 52°23' E 004°57'0 0.0
2014-Jul-05 14:33N 52°23' E 004°57'0 0.0
2014-Jul-05 13:33N 52°23' E 004°57'0 0.0
2014-Jul-05 12:33N 52°23' E 004°57'0 0.0
2014-Jul-05 11:33N 52°23' E 004°57'0 0.0
2014-Jul-05 10:33N 52°23' E 004°57'0 0.0
2014-Jul-05 09:33N 52°23' E 004°57'0 0.0
2014-Jul-05 08:33N 52°23' E 004°57'  
Track history (hours):
 
Tides and Currents Weather Stations Pressure Air Temp Water Temp Dewpoint Dewpoint Depression Visibility Wind Speed Wind Dir Waves Ship Positions

Esperanza

Last reported at 2014-Jul-15 08:26 UTC. Time now 2014-Aug-21 14:05 UTC.
Position N 54°09' E 004°55'.
Warning: this ship's position is 37 days out of date.

Length 72 m; draft 4.7 m.

Type: Other ship. MMSI: 244690000.

Date/timePositionNaut miles runAvg speedWind from/ knotsBaromVisibWave heightAir tempDewpointWater temp
2014-Jul-15 08:26N 54°09' E 004°55'1010.8
2014-Jul-15 07:32N 53°59' E 004°57'1110.2
2014-Jul-15 06:29N 53°49' E 004°54'1110.4
2014-Jul-15 05:26N 53°38' E 004°51'910.3
2014-Jul-15 04:33N 53°29' E 004°45'11 9.6
2014-Jul-15 03:28N 53°20' E 004°37'31 9.1
2014-Jul-15 00:04N 52°52' E 004°16'4 8.3
2014-Jul-14 23:32N 52°48' E 004°13'8 8.4
2014-Jul-14 22:33N 52°41' E 004°07'8 8.3
2014-Jul-14 21:33N 52°32' E 004°09'9 9.5
2014-Jul-14 20:33N 52°29' E 004°24'7 7.3
2014-Jul-14 19:33N 52°28' E 004°36'4 3.8
2014-Jul-14 18:33N 52°27' E 004°42'8 8.4
2014-Jul-14 17:34N 52°23' E 004°54'2 1.8
2014-Jul-14 16:33N 52°23' E 004°57'0 0.0
2014-Jul-14 15:31N 52°23' E 004°57'0 0.0
2014-Jul-14 14:34N 52°23' E 004°57'0 0.0
2014-Jul-14 13:31N 52°23' E 004°57'0 0.0
2014-Jul-14 12:31N 52°23' E 004°57'0 0.0
2014-Jul-14 11:33N 52°23' E 004°57'0 0.0
2014-Jul-14 10:33N 52°23' E 004°57'0 0.0
2014-Jul-14 09:34N 52°23' E 004°57'0 0.0
2014-Jul-14 08:31N 52°23' E 004°57'0 0.0
2014-Jul-14 07:33N 52°23' E 004°57'0 0.0
2014-Jul-14 06:31N 52°23' E 004°57'0 0.0
2014-Jul-14 05:33N 52°23' E 004°57'0 0.0
2014-Jul-14 04:31N 52°23' E 004°57'0 0.0
2014-Jul-14 03:33N 52°23' E 004°57'0 0.0
2014-Jul-14 02:27N 52°23' E 004°57'0 0.0
2014-Jul-14 01:33N 52°23' E 004°57'0 0.0
2014-Jul-14 00:33N 52°23' E 004°57'0 0.0
2014-Jul-13 23:30N 52°23' E 004°57'0 0.0
2014-Jul-13 22:34N 52°23' E 004°57'0 0.0
2014-Jul-13 21:33N 52°23' E 004°57'0 0.0
2014-Jul-13 20:33N 52°23' E 004°57'0 0.0
2014-Jul-13 19:34N 52°23' E 004°57'0 0.0
2014-Jul-13 18:33N 52°23' E 004°57'0 0.0
2014-Jul-13 17:33N 52°23' E 004°57'0 0.0
2014-Jul-13 16:33N 52°23' E 004°57'0 0.0
2014-Jul-13 15:33N 52°23' E 004°57'0 0.0
2014-Jul-13 14:33N 52°23' E 004°57'0 0.0
2014-Jul-13 13:33N 52°23' E 004°57'0 0.0
2014-Jul-13 12:33N 52°23' E 004°57'0 0.0
2014-Jul-13 11:33N 52°23' E 004°57'0 0.0
2014-Jul-13 10:33N 52°23' E 004°57'0 0.0
2014-Jul-13 09:33N 52°23' E 004°57'0 0.0
2014-Jul-13 08:33N 52°23' E 004°57'0 0.0
2014-Jul-13 07:33N 52°23' E 004°57'0 0.0
2014-Jul-13 06:33N 52°23' E 004°57'0 0.0
2014-Jul-13 05:33N 52°23' E 004°57'0 0.0
2014-Jul-13 04:33N 52°23' E 004°57'0 0.0
2014-Jul-13 03:33N 52°23' E 004°57'0 0.0
2014-Jul-13 02:33N 52°23' E 004°57'0 0.0
2014-Jul-13 01:33N 52°23' E 004°57'0 0.0
2014-Jul-13 00:33N 52°23' E 004°57'0 0.0
2014-Jul-12 23:33N 52°23' E 004°57'0 0.0
2014-Jul-12 22:33N 52°23' E 004°57'0 0.0
2014-Jul-12 21:33N 52°23' E 004°57'0 0.0
2014-Jul-12 20:33N 52°23' E 004°57'0 0.0
2014-Jul-12 19:33N 52°23' E 004°57'0 0.0
2014-Jul-12 18:33N 52°23' E 004°57'0 0.0
2014-Jul-12 17:33N 52°23' E 004°57'0 0.0
2014-Jul-12 16:33N 52°23' E 004°57'0 0.0
2014-Jul-12 15:33N 52°23' E 004°57'0 0.0
2014-Jul-12 14:33N 52°23' E 004°57'0 0.0
2014-Jul-12 13:33N 52°23' E 004°57'0 0.0
2014-Jul-12 12:33N 52°23' E 004°57'0 0.0
2014-Jul-12 11:33N 52°23' E 004°57'0 0.0
2014-Jul-12 10:33N 52°23' E 004°57'0 0.0
2014-Jul-12 09:33N 52°23' E 004°57'0 0.0
2014-Jul-12 08:33N 52°23' E 004°57'0 0.0
2014-Jul-12 07:33N 52°23' E 004°57'0 0.0
2014-Jul-12 06:33N 52°23' E 004°57'0 0.0
2014-Jul-12 05:33N 52°23' E 004°57'0 0.0
2014-Jul-12 04:33N 52°23' E 004°57'0 0.0
2014-Jul-12 03:33N 52°23' E 004°57'0 0.0
2014-Jul-12 02:33N 52°23' E 004°57'0 0.0
2014-Jul-12 01:33N 52°23' E 004°57'0 0.0
2014-Jul-12 00:33N 52°23' E 004°57'0 0.0
2014-Jul-11 23:33N 52°23' E 004°57'0 0.0
2014-Jul-11 22:33N 52°23' E 004°57'0 0.0
2014-Jul-11 21:33N 52°23' E 004°57'0 0.0
2014-Jul-11 20:33N 52°23' E 004°57'0 0.0
2014-Jul-11 19:33N 52°23' E 004°57'0 0.0
2014-Jul-11 18:33N 52°23' E 004°57'0 0.0
2014-Jul-11 17:33N 52°23' E 004°57'0 0.0
2014-Jul-11 16:33N 52°23' E 004°57'0 0.0
2014-Jul-11 15:33N 52°23' E 004°57'0 0.0
2014-Jul-11 14:33N 52°23' E 004°57'0 0.0
2014-Jul-11 13:33N 52°23' E 004°57'0 0.0
2014-Jul-11 12:33N 52°23' E 004°57'0 0.0
2014-Jul-11 11:33N 52°23' E 004°57'0 0.0
2014-Jul-11 10:33N 52°23' E 004°57'0 0.0
2014-Jul-11 09:33N 52°23' E 004°57'0 0.0
2014-Jul-11 08:33N 52°23' E 004°57'0 0.0
2014-Jul-11 07:33N 52°23' E 004°57'0 0.0
2014-Jul-11 06:33N 52°23' E 004°57'0 0.0
2014-Jul-11 05:33N 52°23' E 004°57'0 0.0
2014-Jul-11 04:33N 52°23' E 004°57'0 0.0
2014-Jul-11 03:33N 52°23' E 004°57'0 0.0
2014-Jul-11 02:33N 52°23' E 004°57'0 0.0
2014-Jul-11 01:33N 52°23' E 004°57'0 0.0
2014-Jul-11 00:33N 52°23' E 004°57'0 0.0
2014-Jul-10 23:33N 52°23' E 004°57'0 0.0
2014-Jul-10 22:33N 52°23' E 004°57'0 0.0
2014-Jul-10 21:33N 52°23' E 004°57'0 0.0
2014-Jul-10 20:33N 52°23' E 004°57'0 0.0
2014-Jul-10 19:33N 52°23' E 004°57'0 0.0
2014-Jul-10 18:33N 52°23' E 004°57'0 0.0
2014-Jul-10 17:33N 52°23' E 004°57'0 0.0
2014-Jul-10 16:33N 52°23' E 004°57'0 0.0
2014-Jul-10 15:33N 52°23' E 004°57'0 0.0
2014-Jul-10 14:33N 52°23' E 004°57'0 0.0
2014-Jul-10 13:33N 52°23' E 004°57'0 0.0
2014-Jul-10 12:33N 52°23' E 004°57'0 0.0
2014-Jul-10 11:33N 52°23' E 004°57'0 0.0
2014-Jul-10 10:33N 52°23' E 004°57'0 0.0
2014-Jul-10 09:33N 52°23' E 004°57'0 0.0
2014-Jul-10 08:33N 52°23' E 004°57'0 0.0
2014-Jul-10 07:33N 52°23' E 004°57'0 0.0
2014-Jul-10 06:33N 52°23' E 004°57'0 0.0
2014-Jul-10 05:33N 52°23' E 004°57'0 0.0
2014-Jul-10 04:33N 52°23' E 004°57'0 0.0
2014-Jul-10 03:33N 52°23' E 004°57'0 0.0
2014-Jul-10 02:33N 52°23' E 004°57'0 0.0
2014-Jul-10 01:33N 52°23' E 004°57'0 0.0
2014-Jul-10 00:33N 52°23' E 004°57'0 0.0
2014-Jul-09 23:33N 52°23' E 004°57'0 0.0
2014-Jul-09 22:33N 52°23' E 004°57'0 0.0
2014-Jul-09 21:33N 52°23' E 004°57'0 0.0
2014-Jul-09 20:33N 52°23' E 004°57'0 0.0
2014-Jul-09 19:33N 52°23' E 004°57'0 0.0
2014-Jul-09 18:33N 52°23' E 004°57'0 0.0
2014-Jul-09 17:33N 52°23' E 004°57'0 0.0
2014-Jul-09 16:33N 52°23' E 004°57'0 0.0
2014-Jul-09 15:33N 52°23' E 004°57'0 0.0
2014-Jul-09 14:33N 52°23' E 004°57'0 0.0
2014-Jul-09 13:33N 52°23' E 004°57'0 0.0
2014-Jul-09 12:33N 52°23' E 004°57'0 0.0
2014-Jul-09 11:33N 52°23' E 004°57'0 0.0
2014-Jul-09 10:33N 52°23' E 004°57'0 0.0
2014-Jul-09 09:33N 52°23' E 004°57'0 0.0
2014-Jul-09 08:33N 52°23' E 004°57'0 0.0
2014-Jul-09 07:33N 52°23' E 004°57'0 0.0
2014-Jul-09 06:33N 52°23' E 004°57'0 0.0
2014-Jul-09 05:33N 52°23' E 004°57'0 0.0
2014-Jul-09 04:33N 52°23' E 004°57'0 0.0
2014-Jul-09 03:33N 52°23' E 004°57'0 0.0
2014-Jul-09 02:33N 52°23' E 004°57'0 0.0
2014-Jul-09 01:33N 52°23' E 004°57'0 0.0
2014-Jul-09 00:33N 52°23' E 004°57'0 0.0
2014-Jul-08 23:33N 52°23' E 004°57'0 0.0
2014-Jul-08 22:33N 52°23' E 004°57'0 0.0
2014-Jul-08 21:33N 52°23' E 004°57'0 0.0
2014-Jul-08 20:33N 52°23' E 004°57'0 0.0
2014-Jul-08 19:33N 52°23' E 004°57'0 0.0
2014-Jul-08 18:33N 52°23' E 004°57'0 0.0
2014-Jul-08 17:33N 52°23' E 004°57'0 0.0
2014-Jul-08 16:33N 52°23' E 004°57'0 0.0
2014-Jul-08 15:33N 52°23' E 004°57'0 0.0
2014-Jul-08 14:33N 52°23' E 004°57'0 0.0
2014-Jul-08 13:30N 52°23' E 004°57'0 0.0
2014-Jul-08 12:33N 52°23' E 004°57'0 0.0
2014-Jul-08 11:33N 52°23' E 004°57'0 0.0
2014-Jul-08 10:33N 52°23' E 004°57'0 0.0
2014-Jul-08 09:33N 52°23' E 004°57'0 0.0
2014-Jul-08 08:30N 52°23' E 004°57'0 0.0
2014-Jul-08 07:33N 52°23' E 004°57'0 0.0
2014-Jul-08 06:33N 52°23' E 004°57'0 0.0
2014-Jul-08 05:33N 52°23' E 004°57'0 0.0
2014-Jul-08 04:30N 52°23' E 004°57'0 0.0
2014-Jul-08 03:33N 52°23' E 004°57'0 0.0
2014-Jul-08 02:33N 52°23' E 004°57'0 0.0
2014-Jul-08 01:33N 52°23' E 004°57'0 0.0
2014-Jul-08 00:33N 52°23' E 004°57'0 0.0
2014-Jul-07 23:33N 52°23' E 004°57'0 0.0
2014-Jul-07 22:33N 52°23' E 004°57'0 0.0
2014-Jul-07 21:33N 52°23' E 004°57'0 0.0
2014-Jul-07 20:33N 52°23' E 004°57'0 0.0
2014-Jul-07 19:33N 52°23' E 004°57'0 0.0
2014-Jul-07 18:33N 52°23' E 004°57'0 0.0
2014-Jul-07 17:33N 52°23' E 004°57'0 0.0
2014-Jul-07 16:33N 52°23' E 004°57'0 0.0
2014-Jul-07 15:33N 52°23' E 004°57'0 0.0
2014-Jul-07 14:33N 52°23' E 004°57'0 0.0
2014-Jul-07 13:33N 52°23' E 004°57'0 0.0
2014-Jul-07 12:33N 52°23' E 004°57'0 0.0
2014-Jul-07 11:30N 52°23' E 004°57'0 0.0
2014-Jul-07 10:30N 52°23' E 004°57'0 0.0
2014-Jul-07 09:33N 52°23' E 004°57'0 0.0
2014-Jul-07 08:33N 52°23' E 004°57'0 0.0
2014-Jul-07 07:33N 52°23' E 004°57'0 0.0
2014-Jul-07 06:33N 52°23' E 004°57'0 0.0
2014-Jul-07 05:33N 52°23' E 004°57'0 0.0
2014-Jul-07 04:33N 52°23' E 004°57'0 0.0
2014-Jul-07 03:33N 52°23' E 004°57'0 0.0
2014-Jul-07 02:33N 52°23' E 004°57'0 0.0
2014-Jul-07 01:33N 52°23' E 004°57'0 0.0
2014-Jul-07 00:33N 52°23' E 004°57'0 0.0
2014-Jul-06 23:33N 52°23' E 004°57'0 0.0
2014-Jul-06 22:33N 52°23' E 004°57'0 0.0
2014-Jul-06 21:33N 52°23' E 004°57'0 0.0
2014-Jul-06 20:33N 52°23' E 004°57'0 0.0
2014-Jul-06 19:33N 52°23' E 004°57'0 0.0
2014-Jul-06 18:33N 52°23' E 004°57'0 0.0
2014-Jul-06 17:33N 52°23' E 004°57'0 0.0
2014-Jul-06 16:33N 52°23' E 004°57'0 0.0
2014-Jul-06 15:33N 52°23' E 004°57'0 0.0
2014-Jul-06 14:33N 52°23' E 004°57'0 0.0
2014-Jul-06 13:33N 52°23' E 004°57'0 0.0
2014-Jul-06 12:33N 52°23' E 004°57'0 0.0
2014-Jul-06 11:33N 52°23' E 004°57'0 0.0
2014-Jul-06 10:33N 52°23' E 004°57'0 0.0
2014-Jul-06 09:33N 52°23' E 004°57'0 0.0
2014-Jul-06 08:33N 52°23' E 004°57'0 0.0
2014-Jul-06 07:33N 52°23' E 004°57'0 0.0
2014-Jul-06 06:33N 52°23' E 004°57'0 0.0
2014-Jul-06 05:33N 52°23' E 004°57'0 0.0
2014-Jul-06 04:33N 52°23' E 004°57'0 0.0
2014-Jul-06 03:33N 52°23' E 004°57'0 0.0
2014-Jul-06 02:33N 52°23' E 004°57'0 0.0
2014-Jul-06 01:33N 52°23' E 004°57'0 0.0
2014-Jul-06 00:33N 52°23' E 004°57'0 0.0
2014-Jul-05 23:33N 52°23' E 004°57'0 0.0
2014-Jul-05 22:33N 52°23' E 004°57'0 0.0
2014-Jul-05 21:33N 52°23' E 004°57'0 0.0
2014-Jul-05 20:33N 52°23' E 004°57'0 0.0
2014-Jul-05 19:33N 52°23' E 004°57'0 0.0
2014-Jul-05 18:33N 52°23' E 004°57'0 0.0
2014-Jul-05 17:33N 52°23' E 004°57'0 0.0
2014-Jul-05 16:33N 52°23' E 004°57'0 0.0
2014-Jul-05 15:33N 52°23' E 004°57'0 0.0
2014-Jul-05 14:33N 52°23' E 004°57'0 0.0
2014-Jul-05 13:33N 52°23' E 004°57'0 0.0
2014-Jul-05 12:33N 52°23' E 004°57'0 0.0
2014-Jul-05 11:33N 52°23' E 004°57'0 0.0
2014-Jul-05 10:33N 52°23' E 004°57'0 0.0
2014-Jul-05 09:33N 52°23' E 004°57'0 0.0
2014-Jul-05 08:33N 52°23' E 004°57'  

Dump ship's entire track history